Illinois — WYQ3689 — position and weather

sailwx.info

Track history (hours):
 
Tides and Currents Weather Stations Pressure Air Temp Water Temp Dewpoint Dewpoint Depression Visibility Wind Speed Wind Dir Waves Ship Positions

Illinois

More information available from US FCC via Universal Licensing System and Coast Guard Vessel Documentation Center.

Last reported at 2014-Sep-01 02:11 UTC. Time now 2014-Sep-01 07:34 UTC.
Position N 36°47' W 075°54'.

Length 69 m.

Type: Other ship. MMSI: 366796250.

Date/timePositionNaut miles runAvg speedWind from/ knotsBaromVisibWave heightAir tempDewpointWater temp
2014-Sep-01 02:11N 36°47' W 075°54'3 4.2
2014-Sep-01 01:32N 36°50' W 075°55'4 4.6
2014-Sep-01 00:33N 36°54' W 075°57'6 5.5
2014-Aug-31 23:33N 36°57' W 076°03'6 5.4
2014-Aug-31 22:32N 36°59' W 076°09'5 5.3
2014-Aug-31 21:33N 37°00' W 076°15'6 5.4
2014-Aug-31 20:31N 36°56' W 076°20'5 4.2
2014-Aug-31 19:20N 36°51' W 076°19'2 0.2
2014-Aug-31 06:15N 36°50' W 076°17'0 0.0
2014-Aug-30 21:26N 36°50' W 076°17'0 0.0
2014-Aug-30 04:27N 36°50' W 076°17'0 0.0
2014-Aug-29 17:32N 36°50' W 076°17'8 3.7
2014-Aug-29 15:15N 36°59' W 076°20'5 5.5
2014-Aug-29 14:26N 37°01' W 076°15'7 6.2
2014-Aug-29 13:17N 36°58' W 076°07'4 4.6
2014-Aug-29 12:22N 36°57' W 076°01'3 4.2
2014-Aug-29 11:33N 36°56' W 075°58'5 4.2
2014-Aug-29 10:26N 36°52' W 075°55'  
Track history (hours):
 
Tides and Currents Weather Stations Pressure Air Temp Water Temp Dewpoint Dewpoint Depression Visibility Wind Speed Wind Dir Waves Ship Positions

Illinois

More information available from US FCC via Universal Licensing System and Coast Guard Vessel Documentation Center.

Last reported at 2014-Sep-01 02:11 UTC. Time now 2014-Sep-01 07:34 UTC.
Position N 36°47' W 075°54'.

Length 69 m.

Type: Other ship. MMSI: 366796250.

Date/timePositionNaut miles runAvg speedWind from/ knotsBaromVisibWave heightAir tempDewpointWater temp
2014-Sep-01 02:11N 36°47' W 075°54'3 4.2
2014-Sep-01 01:32N 36°50' W 075°55'4 4.6
2014-Sep-01 00:33N 36°54' W 075°57'6 5.5
2014-Aug-31 23:33N 36°57' W 076°03'6 5.4
2014-Aug-31 22:32N 36°59' W 076°09'5 5.3
2014-Aug-31 21:33N 37°00' W 076°15'6 5.4
2014-Aug-31 20:31N 36°56' W 076°20'5 4.2
2014-Aug-31 19:20N 36°51' W 076°19'2 0.2
2014-Aug-31 06:15N 36°50' W 076°17'0 0.0
2014-Aug-30 21:26N 36°50' W 076°17'0 0.0
2014-Aug-30 04:27N 36°50' W 076°17'0 0.0
2014-Aug-29 17:32N 36°50' W 076°17'8 3.7
2014-Aug-29 15:15N 36°59' W 076°20'5 5.5
2014-Aug-29 14:26N 37°01' W 076°15'7 6.2
2014-Aug-29 13:17N 36°58' W 076°07'4 4.6
2014-Aug-29 12:22N 36°57' W 076°01'3 4.2
2014-Aug-29 11:33N 36°56' W 075°58'5 4.2
2014-Aug-29 10:26N 36°52' W 075°55'  

Dump ship's entire track history